NCAR-RAP Real-Time Weather Data

Output produced by METARs form (24 November 2014  08:54 UTC)
found at http://weather.rap.ucar.edu/surface/
 
Conditions at: KALB observed 24 November 2014  08:51 UTC
Temperature: 8.9°C (48°F)
Dewpoint: 6.1°C (43°F) [RH = 83%]
Pressure (altimeter): 29.78 inches Hg (1008.5 mb)
[Sea-level pressure: 1008.5 mb]
Winds: from the SSE (150 degrees) at 5 MPH (4 knots; 2.1 m/s)
Visibility: 8 miles (13 km)
Ceiling: 2100 feet AGL
Clouds: overcast cloud deck at 2100 feet AGL
Present Weather: -RA  (light rain)
KALB 240851Z 15004KT 8SM -RA OVC021 09/06 A2978 RMK AO2 RAB0758 PRESFR SLP085 P0000 60000 T00890061 58056

Conditions at: KALB observed 24 November 2014  08:02 UTC
Temperature: 10.0°C (50°F)
Dewpoint: 5.0°C (41°F) [RH = 71%]
Pressure (altimeter): 29.85 inches Hg (1010.9 mb)
Winds: from the SSE (160 degrees) at 10 MPH (9 knots; 4.7 m/s)
Visibility: 9 miles (14 km)
Ceiling: 2600 feet AGL
Clouds: scattered clouds at 1700 feet AGL
broken clouds at 2600 feet AGL
overcast cloud deck at 4700 feet AGL
Present Weather: -RA  (light rain)
SOME DATA ABOVE MAY BE INACCURATE!!!
"$" is an indication the sensor requires maintenance
KALB 240802Z 16009KT 9SM -RA SCT017 BKN026 OVC047 10/05 A2985 RMK AO2 RAB0758 P0000 T01000050 $

Conditions at: KALB observed 24 November 2014  07:51 UTC
Temperature: 10.6°C (51°F)
Dewpoint: 4.4°C (40°F) [RH = 65%]
Pressure (altimeter): 29.86 inches Hg (1011.3 mb)
[Sea-level pressure: 1011.3 mb]
Winds: from the S (170 degrees) at 9 MPH (8 knots; 4.2 m/s)
Visibility: 10 or more miles (16+ km)
Ceiling: 4700 feet AGL
Clouds: few clouds at 1700 feet AGL
broken clouds at 4700 feet AGL
overcast cloud deck at 5500 feet AGL
Present Weather: no significant weather observed at this time
KALB 240751Z 17008KT 10SM FEW017 BKN047 OVC055 11/04 A2986 RMK AO2 SLP113 T01060044

Conditions at: KALB observed 24 November 2014  06:51 UTC
Temperature: 10.6°C (51°F)
Dewpoint: 1.7°C (35°F) [RH = 54%]
Pressure (altimeter): 29.90 inches Hg (1012.6 mb)
[Sea-level pressure: 1012.6 mb]
Winds: from the SSE (160 degrees) at 12 MPH (10 knots; 5.2 m/s)
Visibility: 10 or more miles (16+ km)
Ceiling: 7000 feet AGL
Clouds: broken clouds at 7000 feet AGL
overcast cloud deck at 16000 feet AGL
Present Weather: no significant weather observed at this time
KALB 240651Z 16010KT 10SM BKN070 OVC160 11/02 A2990 RMK AO2 SLP126 T01060017

Conditions at: KALB observed 24 November 2014  05:51 UTC
Temperature: 10.6°C (51°F)
Dewpoint: 0.0°C (32°F) [RH = 48%]
Pressure (altimeter): 29.94 inches Hg (1014.0 mb)
[Sea-level pressure: 1014.0 mb]
Winds: from the S (170 degrees) at 12 MPH (10 knots; 5.2 m/s)
Visibility: 10 or more miles (16+ km)
Ceiling: 17000 feet AGL
Clouds: few clouds at 9000 feet AGL
broken clouds at 17000 feet AGL
overcast cloud deck at 20000 feet AGL
Present Weather: no significant weather observed at this time
KALB 240551Z 17010KT 10SM FEW090 BKN170 OVC200 11/00 A2994 RMK AO2 SLP140 BKN V OVC T01060000 10111 20094 58026

Conditions at: KALB observed 24 November 2014  04:51 UTC
Temperature: 9.4°C (49°F)
Dewpoint: -1.7°C (29°F) [RH = 46%]
Pressure (altimeter): 29.98 inches Hg (1015.3 mb)
[Sea-level pressure: 1015.2 mb]
Winds: from the S (180 degrees) at 8 MPH (7 knots; 3.6 m/s)
Visibility: 10 or more miles (16+ km)
Ceiling: 20000 feet AGL
Clouds: few clouds at 9000 feet AGL
overcast cloud deck at 20000 feet AGL
Present Weather: no significant weather observed at this time
KALB 240451Z 18007KT 10SM FEW090 OVC200 09/M02 A2998 RMK AO2 SLP152 T00941017 401170022

Conditions at: KALB observed 24 November 2014  03:51 UTC
Temperature: 10.0°C (50°F)
Dewpoint: -2.8°C (27°F) [RH = 40%]
Pressure (altimeter): 30.00 inches Hg (1016.0 mb)
[Sea-level pressure: 1016.0 mb]
Winds: from the S (170 degrees) at 9 MPH (8 knots; 4.2 m/s)
Visibility: 10 or more miles (16+ km)
Ceiling: 21000 feet AGL
Clouds: few clouds at 9000 feet AGL
overcast cloud deck at 21000 feet AGL
Present Weather: no significant weather observed at this time
KALB 240351Z 17008KT 10SM FEW090 OVC210 10/M03 A3000 RMK AO2 SLP160 T01001028

Conditions at: KALB observed 24 November 2014  02:51 UTC
Temperature: 10.6°C (51°F)
Dewpoint: -2.2°C (28°F) [RH = 41%]
Pressure (altimeter): 30.02 inches Hg (1016.7 mb)
[Sea-level pressure: 1016.7 mb]
Winds: from the S (170 degrees) at 12 MPH (10 knots; 5.2 m/s)
Visibility: 10 or more miles (16+ km)
Ceiling: 21000 feet AGL
Clouds: few clouds at 9000 feet AGL
broken clouds at 21000 feet AGL
overcast cloud deck at 25000 feet AGL
Present Weather: no significant weather observed at this time
KALB 240251Z 17010KT 10SM FEW090 BKN210 OVC250 11/M02 A3002 RMK AO2 SLP167 T01061022 58009

Conditions at: KALB observed 24 November 2014  01:51 UTC
Temperature: 10.6°C (51°F)
Dewpoint: -1.7°C (29°F) [RH = 42%]
Pressure (altimeter): 30.04 inches Hg (1017.4 mb)
[Sea-level pressure: 1017.3 mb]
Winds: from the S (180 degrees) at 12 MPH (10 knots; 5.2 m/s)
gusting to 18 MPH (16 knots; 8.3 m/s)
Visibility: 10 or more miles (16+ km)
Ceiling: 25000 feet AGL
Clouds: scattered clouds at 9000 feet AGL
overcast cloud deck at 25000 feet AGL
Present Weather: no significant weather observed at this time
KALB 240151Z 18010G16KT 10SM SCT090 OVC250 11/M02 A3004 RMK AO2 SLP173 T01061017

Conditions at: KALB observed 24 November 2014  00:51 UTC
Temperature: 10.0°C (50°F)
Dewpoint: -1.7°C (29°F) [RH = 44%]
Pressure (altimeter): 30.04 inches Hg (1017.4 mb)
[Sea-level pressure: 1017.5 mb]
Winds: from the S (170 degrees) at 7 MPH (6 knots; 3.1 m/s)
Visibility: 10 or more miles (16+ km)
Ceiling: 25000 feet AGL
Clouds: few clouds at 6000 feet AGL
few clouds at 9000 feet AGL
overcast cloud deck at 25000 feet AGL
Present Weather: no significant weather observed at this time
KALB 240051Z 17006KT 10SM FEW060 FEW090 OVC250 10/M02 A3004 RMK AO2 SLP175 FEW090 V SCT T01001017

Conditions at: KALB observed 23 November 2014  23:51 UTC
Temperature: 10.6°C (51°F)
Dewpoint: -1.7°C (29°F) [RH = 42%]
Pressure (altimeter): 30.05 inches Hg (1017.7 mb)
[Sea-level pressure: 1017.6 mb]
Winds: from the SSE (160 degrees) at 6 MPH (5 knots; 2.6 m/s)
Visibility: 10 or more miles (16+ km)
Ceiling: 25000 feet AGL
Clouds: few clouds at 6000 feet AGL
few clouds at 9500 feet AGL
overcast cloud deck at 25000 feet AGL
Present Weather: no significant weather observed at this time
KALB 232351Z 16005KT 10SM FEW060 FEW095 OVC250 11/M02 A3005 RMK AO2 SLP176 T01061017 10117 20100 58008

Conditions at: KALB observed 23 November 2014  22:51 UTC
Temperature: 11.1°C (52°F)
Dewpoint: -2.2°C (28°F) [RH = 39%]
Pressure (altimeter): 30.07 inches Hg (1018.4 mb)
[Sea-level pressure: 1018.5 mb]
Winds: from the S (170 degrees) at 6 MPH (5 knots; 2.6 m/s)
Visibility: 10 or more miles (16+ km)
Ceiling: 9500 feet AGL
Clouds: scattered clouds at 6000 feet AGL
broken clouds at 9500 feet AGL
overcast cloud deck at 25000 feet AGL
Present Weather: no significant weather observed at this time
KALB 232251Z 17005KT 10SM SCT060 BKN095 OVC250 11/M02 A3007 RMK AO2 SLP185 T01111022

Conditions at: KALB observed 23 November 2014  21:51 UTC
Temperature: 11.1°C (52°F)
Dewpoint: -1.7°C (29°F) [RH = 41%]
Pressure (altimeter): 30.06 inches Hg (1018.0 mb)
[Sea-level pressure: 1018.2 mb]
Winds: from the S (170 degrees) at 7 MPH (6 knots; 3.1 m/s)
Visibility: 10 or more miles (16+ km)
Ceiling: 6000 feet AGL
Clouds: broken clouds at 6000 feet AGL
broken clouds at 9500 feet AGL
Present Weather: no significant weather observed at this time
KALB 232151Z 17006KT 10SM BKN060 BKN095 11/M02 A3006 RMK AO2 SLP182 T01111017